Time;durP1;ratioP1;P1;durP2;ratioP2;P2;SDS_P1;SDS_P2;PMS_P1;PMS_P2;Temp;Humidity;BMP_temperature;BMP_pressure;BME280_temperature;BME280_humidity;BME280_pressure;Samples;Min_cycle;Max_cycle;Signal;HPM_P1;HPM_P2
2020/12/23 06:07:21;;;;;;;16.40;8.73;;;;;;;-3.30;70.23;100489.73;1669627;78;950734;-62
2020/12/23 06:09:49;;;;;;;18.45;8.00;;;;;;;-3.19;70.24;100487.27;1664029;84;21227;-63
2020/12/23 06:12:20;;;;;;;17.00;8.98;;;;;;;-3.13;69.88;100496.84;1692684;83;21208;-61
2020/12/23 06:14:58;;;;;;;16.00;8.13;;;;;;;-3.18;69.18;100489.77;1703243;82;21151;-61
2020/12/23 06:17:27;;;;;;;18.50;9.55;;;;;;;-3.28;69.15;100492.26;1699783;83;21648;-60
2020/12/23 06:19:58;;;;;;;18.35;8.85;;;;;;;-3.32;68.91;100500.45;1704204;82;21563;-61
2020/12/23 06:22:27;;;;;;;16.67;9.08;;;;;;;-3.38;68.97;100495.99;1695252;83;21250;-61
2020/12/23 06:25:00;;;;;;;17.87;9.20;;;;;;;-3.38;69.22;100499.83;1679882;83;21784;-60
2020/12/23 06:27:26;;;;;;;18.77;9.30;;;;;;;-3.41;69.30;100497.39;1665075;82;21656;-60
2020/12/23 06:29:54;;;;;;;21.95;8.45;;;;;;;-3.43;69.50;100493.58;1649498;84;21191;-59
2020/12/23 06:32:24;;;;;;;14.10;7.97;;;;;;;-3.32;69.51;100498.34;1677590;83;21620;-59
2020/12/23 06:35:00;;;;;;;14.58;7.47;;;;;;;-3.26;69.42;100494.31;1694704;83;21214;-59
2020/12/23 06:37:33;;;;;;;15.07;7.90;;;;;;;-3.21;69.45;100498.00;1670435;85;21165;-60
2020/12/23 06:40:09;;;;;;;14.55;7.58;;;;;;;-3.12;69.56;100495.95;1687346;83;21959;-61
2020/12/23 06:42:47;;;;;;;14.65;7.72;;;;;;;-3.02;69.33;100490.09;1684719;83;21368;-59
2020/12/23 06:45:24;;;;;;;15.40;7.35;;;;;;;-2.90;69.15;100486.28;1826765;77;22680;-59
2020/12/23 06:47:57;;;;;;;16.30;8.20;;;;;;;-2.94;69.13;100492.38;1764095;80;21159;-58
2020/12/23 06:50:30;;;;;;;14.70;7.83;;;;;;;-2.94;68.96;100480.87;1724051;81;21913;-58
2020/12/23 06:52:59;;;;;;;17.05;8.50;;;;;;;-2.95;68.99;100485.61;1727867;83;21620;-59
2020/12/23 06:55:44;;;;;;;15.93;7.60;;;;;;;-2.92;68.98;100485.04;1723251;81;21601;-60
2020/12/23 06:58:37;;;;;;;16.42;8.63;;;;;;;-2.84;68.83;100479.68;1746834;81;21154;-60
2020/12/23 07:01:16;;;;;;;17.02;7.75;;;;;;;-2.80;69.00;100478.22;1725903;83;21674;-61
2020/12/23 07:03:47;;;;;;;15.05;8.18;;;;;;;-2.72;68.88;100474.13;1715234;83;21652;-59
2020/12/23 07:06:32;;;;;;;17.15;8.40;;;;;;;-2.66;68.72;100468.80;1711574;81;21686;-61
2020/12/23 07:09:03;;;;;;;16.07;8.25;;;;;;;-2.62;68.66;100469.50;1728086;83;21609;-61
2020/12/23 07:11:33;;;;;;;16.32;8.55;;;;;;;-2.58;68.69;100469.34;1726260;83;21106;-60
2020/12/23 07:14:04;;;;;;;18.62;8.73;;;;;;;-2.57;68.59;100461.22;1725973;81;21293;-61
2020/12/23 07:16:39;;;;;;;16.20;8.18;;;;;;;-2.53;68.54;100464.06;1714773;83;21145;-61
2020/12/23 07:19:08;;;;;;;17.10;8.78;;;;;;;-2.55;68.55;100464.09;1714265;83;21177;-60
2020/12/23 07:21:38;;;;;;;16.62;9.28;;;;;;;-2.54;68.68;100464.96;1699505;83;21202;-60
2020/12/23 07:24:07;;;;;;;17.40;10.23;;;;;;;-2.54;68.68;100464.96;1698662;84;21890;-60
2020/12/23 07:26:38;;;;;;;15.45;7.33;;;;;;;-2.58;68.68;100462.95;1685091;85;21219;-61
2020/12/23 07:29:10;;;;;;;16.73;8.45;;;;;;;-2.54;68.70;100453.00;1696051;84;21610;-60
2020/12/23 07:31:39;;;;;;;15.23;8.58;;;;;;;-2.51;68.60;100458.44;1720848;83;21633;-61
2020/12/23 07:34:08;;;;;;;15.63;8.48;;;;;;;-2.48;68.58;100460.90;1725940;83;21316;-60
2020/12/23 07:36:36;;;;;;;15.03;8.28;;;;;;;-2.45;68.46;100456.93;1699434;83;21174;-59
2020/12/23 07:39:05;;;;;;;19.35;9.78;;;;;;;-2.50;68.42;100458.82;1729393;82;21611;-60
2020/12/23 07:41:34;;;;;;;15.95;8.93;;;;;;;-2.47;68.62;100463.39;1735490;82;21111;-59
2020/12/23 07:44:06;;;;;;;16.40;9.13;;;;;;;-2.44;68.42;100465.83;1716903;83;21689;-60
2020/12/23 07:46:35;;;;;;;18.40;9.15;;;;;;;-2.45;68.56;100459.05;1691765;83;21161;-61
2020/12/23 07:49:26;;;;;;;17.17;10.45;;;;;;;-2.35;68.51;100468.95;1715043;82;21646;-62
2020/12/23 07:51:56;;;;;;;19.95;11.35;;;;;;;-2.31;68.56;100458.52;1678842;85;21571;-62
2020/12/23 07:54:24;;;;;;;19.62;10.23;;;;;;;-2.25;68.23;100453.62;1702625;84;21162;-60
2020/12/23 07:56:53;;;;;;;17.73;9.43;;;;;;;-2.18;68.37;100454.59;1703776;84;21713;-62
2020/12/23 07:59:24;;;;;;;18.98;9.13;;;;;;;-2.14;68.30;100451.94;1702503;84;21665;-61
2020/12/23 08:01:55;;;;;;;16.00;8.80;;;;;;;-2.12;68.28;100444.57;1702272;84;21708;-61
2020/12/23 08:04:24;;;;;;;16.90;8.75;;;;;;;-2.09;68.14;100445.75;1702854;84;21574;-62
2020/12/23 08:06:54;;;;;;;16.15;9.13;;;;;;;-2.07;68.17;100437.55;1643729;85;21653;-60
2020/12/23 08:09:27;;;;;;;21.93;9.10;;;;;;;-1.99;68.11;100423.16;1693334;83;21754;-60
2020/12/23 08:11:56;;;;;;;17.57;9.43;;;;;;;-2.04;67.88;100418.24;1708902;83;21179;-59
2020/12/23 08:14:24;;;;;;;19.62;9.70;;;;;;;-2.05;68.13;100422.12;1701084;84;21253;-59
2020/12/23 08:16:58;;;;;;;22.87;10.00;;;;;;;-1.98;68.35;100414.16;1699212;83;22469;-62
2020/12/23 08:19:26;;;;;;;16.53;8.83;;;;;;;-1.98;68.35;100414.16;1694524;83;21201;-61
2020/12/23 08:22:11;;;;;;;22.15;11.95;;;;;;;-1.93;68.15;100405.82;1677587;84;22638;-61
2020/12/23 08:24:39;;;;;;;18.92;9.78;;;;;;;-1.80;68.07;100405.33;1674806;84;21636;-61
2020/12/23 08:27:08;;;;;;;15.88;9.53;;;;;;;-1.66;67.61;100391.53;1693063;84;21610;-63
2020/12/23 08:29:36;;;;;;;16.87;9.13;;;;;;;-1.66;67.61;100391.53;1695796;84;21238;-62
2020/12/23 08:32:05;;;;;;;17.55;10.68;;;;;;;-1.62;67.42;100379.78;1696159;84;21356;-67
2020/12/23 08:34:34;;;;;;;20.45;11.28;;;;;;;-1.64;67.33;100367.95;1695846;84;21202;-61
2020/12/23 08:37:04;;;;;;;18.23;9.98;;;;;;;-1.64;67.33;100367.95;1663355;86;21570;-60
2020/12/23 08:39:36;;;;;;;19.62;10.60;;;;;;;-1.58;67.32;100370.25;1671969;85;21551;-62
2020/12/23 08:42:08;;;;;;;18.98;10.38;;;;;;;-1.55;67.28;100365.02;1665596;86;21215;-61
2020/12/23 08:44:37;;;;;;;17.27;10.63;;;;;;;-1.50;67.11;100366.08;1703240;84;21666;-59
2020/12/23 08:47:07;;;;;;;14.30;8.55;;;;;;;-1.49;66.80;100361.33;1702563;84;21223;-59
2020/12/23 08:49:43;;;;;;;18.25;9.93;;;;;;;-1.56;66.77;100358.65;1677707;84;21569;-59
2020/12/23 08:52:21;;;;;;;15.48;9.33;;;;;;;-1.59;66.73;100354.50;1695028;84;21158;-60
2020/12/23 08:54:50;;;;;;;18.62;9.83;;;;;;;-1.62;66.80;100350.31;1695726;84;21211;-60
2020/12/23 08:57:27;;;;;;;17.77;9.65;;;;;;;-1.65;66.80;100342.77;1696445;84;21617;-59
2020/12/23 08:59:55;;;;;;;18.27;10.90;;;;;;;-1.65;66.80;100342.77;1694090;84;21361;-62
2020/12/23 09:02:25;;;;;;;19.62;11.57;;;;;;;-1.60;67.06;100342.59;1696848;84;21587;-63
2020/12/23 09:04:54;;;;;;;21.25;11.28;;;;;;;-1.48;66.73;100329.25;1691274;84;21595;-61
2020/12/23 09:07:22;;;;;;;18.57;10.53;;;;;;;-1.48;66.73;100329.25;1680871;84;21677;-59
2020/12/23 09:09:51;;;;;;;19.17;10.58;;;;;;;-1.43;66.70;100320.92;1681345;84;21621;-63
2020/12/23 09:12:21;;;;;;;17.90;10.30;;;;;;;-1.45;66.67;100300.08;1691396;84;21629;-63
2020/12/23 09:14:49;;;;;;;19.52;10.65;;;;;;;-1.45;66.67;100300.08;1691709;84;21227;-58
2020/12/23 09:17:22;;;;;;;21.07;10.03;;;;;;;-1.51;66.58;100299.90;1695868;84;21726;-60
2020/12/23 09:20:03;;;;;;;19.37;10.78;;;;;;;-1.46;66.81;100291.56;1693505;84;21198;-62
2020/12/23 09:22:40;;;;;;;21.00;11.22;;;;;;;-1.42;66.87;100289.26;1686631;84;21185;-62
2020/12/23 09:25:22;;;;;;;20.72;11.80;;;;;;;-1.35;66.83;100293.66;1688568;84;21201;-63
2020/12/23 09:28:11;;;;;;;18.62;10.40;;;;;;;-1.27;66.62;100284.34;1692877;84;21190;-63
2020/12/23 09:30:51;;;;;;;23.73;13.03;;;;;;;-1.24;66.25;100273.52;1691291;84;21196;-65
2020/12/23 09:33:21;;;;;;;23.27;10.82;;;;;;;-1.27;66.30;100272.80;1653757;86;21209;-62
2020/12/23 09:36:03;;;;;;;20.90;11.95;;;;;;;-1.33;66.24;100264.94;1684450;84;21228;-60
2020/12/23 09:38:35;;;;;;;22.13;11.68;;;;;;;-1.38;66.36;100265.13;1690885;84;21580;-63
2020/12/23 09:41:07;;;;;;;23.47;12.30;;;;;;;-1.31;66.54;100258.00;1686846;84;21578;-61
2020/12/23 09:43:37;;;;;;;20.00;11.25;;;;;;;-1.27;66.29;100256.14;1685859;84;21354;-62
2020/12/23 09:46:11;;;;;;;22.35;12.28;;;;;;;-1.24;66.43;100258.13;1686366;84;21606;-63
2020/12/23 09:48:40;;;;;;;21.68;11.78;;;;;;;-1.16;66.44;100253.93;1691425;84;21163;-64
2020/12/23 09:51:09;;;;;;;23.22;13.75;;;;;;;-1.16;66.20;100250.09;1702801;83;21741;-63
2020/12/23 09:53:38;;;;;;;26.50;12.03;;;;;;;-1.19;66.23;100247.64;1696730;84;21640;-63
2020/12/23 09:56:09;;;;;;;23.27;14.03;;;;;;;-1.15;66.32;100241.03;1691719;84;21173;-60
2020/12/23 09:58:37;;;;;;;24.30;12.65;;;;;;;-1.14;66.42;100246.98;1685589;84;22846;-61
2020/12/23 10:01:08;;;;;;;21.93;12.82;;;;;;;-1.10;66.47;100238.27;1691433;84;21558;-60
2020/12/23 10:03:38;;;;;;;22.50;12.58;;;;;;;-1.04;66.41;100234.59;1686093;84;21263;-59
2020/12/23 10:06:08;;;;;;;23.18;13.03;;;;;;;-0.98;66.30;100238.16;1687354;84;21124;-59
2020/12/23 10:08:38;;;;;;;24.85;12.25;;;;;;;-1.02;66.16;100230.20;1695656;83;21186;-59
2020/12/23 10:11:06;;;;;;;21.33;12.18;;;;;;;-1.01;66.22;100233.98;1694333;84;21665;-61
2020/12/23 10:13:36;;;;;;;22.48;12.40;;;;;;;-1.00;65.92;100223.27;1691526;84;21691;-61
2020/12/23 10:16:05;;;;;;;21.77;11.90;;;;;;;-1.00;65.92;100223.27;1690762;84;22389;-59
2020/12/23 10:18:34;;;;;;;24.55;12.70;;;;;;;-1.02;65.99;100227.19;1691852;84;21170;-60
2020/12/23 10:21:04;;;;;;;28.23;14.58;;;;;;;-1.15;66.12;100225.64;1689589;84;21569;-59
2020/12/23 10:23:35;;;;;;;23.98;12.88;;;;;;;-1.15;66.43;100220.52;1693081;84;21610;-61
2020/12/23 10:26:04;;;;;;;25.52;14.38;;;;;;;-1.19;66.52;100224.11;1694944;84;21225;-60
2020/12/23 10:28:38;;;;;;;24.05;11.90;;;;;;;-1.24;66.57;100212.41;1680892;84;21675;-59
2020/12/23 10:31:09;;;;;;;25.50;13.50;;;;;;;-1.22;66.79;100207.61;1695804;83;21168;-61
2020/12/23 10:33:40;;;;;;;25.15;14.30;;;;;;;-1.13;67.07;100203.77;1683834;84;22328;-61
2020/12/23 10:36:12;;;;;;;32.93;18.52;;;;;;;-1.13;67.07;100203.77;1653572;85;21685;-57
2020/12/23 10:38:43;;;;;;;30.32;17.25;;;;;;;-1.17;66.87;100195.86;1685822;84;21644;-58
2020/12/23 10:41:11;;;;;;;28.77;16.37;;;;;;;-1.17;66.87;100195.86;1690502;84;21582;-59
2020/12/23 10:43:40;;;;;;;33.45;17.55;;;;;;;-1.13;66.86;100198.64;1666837;84;21326;-59
2020/12/23 10:46:08;;;;;;;32.23;18.15;;;;;;;-1.12;67.05;100192.19;1689808;84;21536;-59
2020/12/23 10:48:37;;;;;;;32.67;16.82;;;;;;;-1.16;67.03;100195.78;1690192;84;21329;-58
2020/12/23 10:51:06;;;;;;;28.75;16.00;;;;;;;-1.22;67.14;100193.95;1685644;84;21748;-59
2020/12/23 10:53:35;;;;;;;36.75;18.17;;;;;;;-1.27;67.29;100198.46;1657462;85;21748;-59
2020/12/23 10:56:09;;;;;;;35.15;19.45;;;;;;;-1.32;67.59;100193.54;1667395;85;21276;-60
2020/12/23 10:58:39;;;;;;;34.40;15.20;;;;;;;-1.28;67.78;100196.80;1683493;85;21149;-60
2020/12/23 11:01:08;;;;;;;31.82;16.93;;;;;;;-1.20;67.68;100195.98;1685341;85;21590;-60
2020/12/23 11:03:37;;;;;;;32.28;16.12;;;;;;;-1.15;67.60;100194.88;1670859;85;21218;-62
2020/12/23 11:06:06;;;;;;;33.48;17.57;;;;;;;-1.15;67.60;100194.88;1684200;84;21661;-60
2020/12/23 11:08:34;;;;;;;30.17;16.15;;;;;;;-1.13;67.55;100193.06;1664335;85;21638;-60
2020/12/23 11:11:05;;;;;;;30.92;15.70;;;;;;;-1.06;67.61;100201.30;1671582;85;21609;-61
2020/12/23 11:13:34;;;;;;;33.23;16.12;;;;;;;-1.09;67.52;100193.31;1680798;85;21674;-60
2020/12/23 11:16:02;;;;;;;31.07;15.83;;;;;;;-1.06;67.56;100194.88;1660186;85;21174;-62
2020/12/23 11:18:31;;;;;;;28.35;15.43;;;;;;;-1.11;67.53;100189.99;1672907;84;21717;-62
2020/12/23 11:21:00;;;;;;;30.88;15.10;;;;;;;-1.13;67.58;100188.39;1674753;85;21642;-61
2020/12/23 11:23:51;;;;;;;32.33;17.32;;;;;;;-1.17;67.62;100192.02;1678131;85;21198;-61
2020/12/23 11:26:21;;;;;;;29.10;16.05;;;;;;;-1.17;67.62;100192.02;1775101;81;21155;-61
2020/12/23 11:28:52;;;;;;;28.02;15.60;;;;;;;-1.18;67.93;100186.06;1767817;80;21611;-61
2020/12/23 11:31:20;;;;;;;29.80;14.85;;;;;;;-1.18;67.93;100186.06;1773203;81;21183;-61
2020/12/23 11:33:48;;;;;;;32.13;17.92;;;;;;;-1.17;68.07;100180.48;1777940;80;21633;-61
2020/12/23 11:36:17;;;;;;;30.77;16.23;;;;;;;-1.17;68.07;100180.48;1748475;81;21693;-62
2020/12/23 11:38:46;;;;;;;33.02;16.40;;;;;;;-1.23;68.12;100184.16;1747896;82;21677;-63
2020/12/23 11:41:14;;;;;;;30.15;15.25;;;;;;;-1.36;68.75;100172.81;1748242;80;21126;-61
2020/12/23 11:43:43;;;;;;;35.98;19.07;;;;;;;-1.36;68.75;100172.81;1753282;81;21312;-60
2020/12/23 11:46:12;;;;;;;29.30;16.17;;;;;;;-1.35;68.97;100173.19;1755129;82;21178;-60
2020/12/23 11:48:41;;;;;;;30.60;16.45;;;;;;;-1.35;69.17;100168.06;1753800;81;21544;-60
2020/12/23 11:51:21;;;;;;;30.92;16.77;;;;;;;-1.30;69.22;100160.99;1764558;80;21094;-64
2020/12/23 11:53:51;;;;;;;27.95;15.23;;;;;;;-1.24;69.18;100166.26;1763832;79;21565;-63
2020/12/23 11:56:22;;;;;;;29.72;15.93;;;;;;;-1.26;69.04;100166.34;1751062;80;21177;-61
2020/12/23 11:58:50;;;;;;;36.68;18.23;;;;;;;-1.33;69.16;100164.96;1767612;80;21692;-61
2020/12/23 12:01:22;;;;;;;29.25;16.27;;;;;;;-1.39;69.49;100158.39;1756877;81;21621;-60
2020/12/23 12:03:52;;;;;;;31.90;17.37;;;;;;;-1.35;69.57;100155.24;1722646;83;21664;-62
2020/12/23 12:06:22;;;;;;;29.55;16.75;;;;;;;-1.35;69.57;100155.24;1797002;79;21563;-60
2020/12/23 12:08:50;;;;;;;32.75;17.32;;;;;;;-1.38;69.62;100156.20;1784539;80;22586;-62
2020/12/23 12:11:21;;;;;;;35.08;17.92;;;;;;;-1.38;70.14;100159.22;1779895;79;21775;-62
2020/12/23 12:13:51;;;;;;;32.23;16.85;;;;;;;-1.38;70.14;100159.22;1753640;82;21138;-62
2020/12/23 12:16:20;;;;;;;40.45;18.67;;;;;;;-1.38;70.03;100157.93;1754080;80;21799;-62
2020/12/23 12:18:49;;;;;;;32.58;17.95;;;;;;;-1.44;69.83;100150.07;1769340;79;21648;-62
2020/12/23 12:21:18;;;;;;;32.28;16.40;;;;;;;-1.44;70.12;100156.93;1767774;80;21170;-62
2020/12/23 12:23:46;;;;;;;35.98;17.87;;;;;;;-1.48;70.17;100157.54;1772044;80;21641;-61
2020/12/23 12:26:14;;;;;;;37.25;18.52;;;;;;;-1.47;70.31;100159.66;1763826;80;22291;-62
2020/12/23 12:28:43;;;;;;;35.50;19.32;;;;;;;-1.46;70.42;100156.18;1769258;79;21613;-63
2020/12/23 12:31:12;;;;;;;36.75;18.35;;;;;;;-1.43;70.69;100155.61;1728282;82;21621;-62
2020/12/23 12:33:41;;;;;;;33.88;18.12;;;;;;;-1.43;70.69;100155.61;1735784;80;21170;-62
2020/12/23 12:36:10;;;;;;;31.07;17.42;;;;;;;-1.39;70.75;100152.43;1714602;80;21142;-63
2020/12/23 12:38:39;;;;;;;30.15;16.97;;;;;;;-1.35;70.81;100160.38;1770925;79;21126;-63
2020/12/23 12:41:10;;;;;;;32.93;15.88;;;;;;;-1.33;70.83;100150.86;1770087;79;21667;-61
2020/12/23 12:43:40;;;;;;;32.93;17.60;;;;;;;-1.37;70.87;100146.34;1707250;83;21187;-62
2020/12/23 12:46:10;;;;;;;30.52;16.57;;;;;;;-1.37;70.87;100146.34;1735778;82;21138;-61
2020/12/23 12:48:40;;;;;;;30.30;16.30;;;;;;;-1.39;70.99;100146.85;1774758;80;21735;-63
2020/12/23 12:51:17;;;;;;;27.05;14.65;;;;;;;-1.35;70.75;100150.11;1752647;80;21174;-60
2020/12/23 12:53:52;;;;;;;27.62;15.43;;;;;;;-1.35;70.75;100150.11;1729329;81;21692;-60
2020/12/23 12:56:28;;;;;;;31.68;16.82;;;;;;;-1.39;70.84;100148.59;1769916;81;21145;-61
2020/12/23 12:59:00;;;;;;;30.57;16.65;;;;;;;-1.42;71.02;100147.01;1755969;81;21301;-60
2020/12/23 13:01:39;;;;;;;29.72;16.45;;;;;;;-1.43;71.24;100147.05;1763906;81;21126;-59
2020/12/23 13:04:08;;;;;;;26.52;15.03;;;;;;;-1.41;71.44;100144.82;1760685;81;21134;-61
2020/12/23 13:06:37;;;;;;;31.48;15.93;;;;;;;-1.38;71.45;100148.50;1755834;79;21186;-58
2020/12/23 13:09:06;;;;;;;27.37;14.93;;;;;;;-1.33;71.57;100147.47;1721622;82;21114;-58
2020/12/23 13:11:36;;;;;;;26.50;14.47;;;;;;;-1.42;71.20;100149.57;1754234;81;21139;-58
2020/12/23 13:14:07;;;;;;;27.73;15.70;;;;;;;-1.42;71.20;100149.57;1764585;81;21641;-59
2020/12/23 13:16:35;;;;;;;26.52;15.80;;;;;;;-1.43;71.29;100141.93;1776416;80;21613;-60
2020/12/23 13:19:04;;;;;;;28.05;15.40;;;;;;;-1.46;71.37;100145.93;1768020;79;21614;-58
2020/12/23 13:21:34;;;;;;;28.17;14.23;;;;;;;-1.54;71.43;100147.57;1766713;81;21174;-58
2020/12/23 13:24:04;;;;;;;28.83;15.50;;;;;;;-1.52;71.76;100147.49;1755605;81;21804;-59
2020/12/23 13:26:33;;;;;;;28.45;15.83;;;;;;;-1.48;71.98;100147.74;1705794;84;21555;-58
2020/12/23 13:29:01;;;;;;;32.42;16.90;;;;;;;-1.44;72.06;100152.63;1750142;79;21585;-59
2020/12/23 13:31:30;;;;;;;31.65;17.62;;;;;;;-1.43;72.06;100147.91;1805977;79;21652;-58
2020/12/23 13:33:59;;;;;;;28.32;15.23;;;;;;;-1.46;72.07;100153.16;1772447;81;22228;-58
2020/12/23 13:36:28;;;;;;;33.70;18.57;;;;;;;-1.46;72.07;100153.16;1752489;81;21210;-60
2020/12/23 13:38:57;;;;;;;29.12;15.85;;;;;;;-1.44;72.19;100145.40;1747162;82;21625;-60
2020/12/23 13:41:25;;;;;;;30.00;16.27;;;;;;;-1.49;71.90;100153.33;1765031;79;21186;-60
2020/12/23 13:43:54;;;;;;;33.15;18.62;;;;;;;-1.54;71.76;100145.46;1748278;82;21625;-59
2020/12/23 13:46:23;;;;;;;32.42;17.17;;;;;;;-1.58;71.93;100147.32;1748643;82;21147;-59
2020/12/23 13:48:55;;;;;;;29.05;16.35;;;;;;;-1.58;72.41;100151.62;1747121;82;21272;-60
2020/12/23 13:51:24;;;;;;;26.20;15.05;;;;;;;-1.58;72.41;100151.62;1787797;79;21558;-60
2020/12/23 13:53:53;;;;;;;33.18;17.00;;;;;;;-1.52;72.50;100148.78;1793313;79;21162;-59
2020/12/23 13:56:23;;;;;;;37.83;20.45;;;;;;;-1.49;72.57;100147.34;1731435;83;21654;-59
2020/12/23 13:58:52;;;;;;;50.70;27.07;;;;;;;-1.47;72.51;100150.69;1751958;82;21128;-60
2020/12/23 14:01:20;;;;;;;35.23;18.23;;;;;;;-1.45;72.66;100145.02;1731548;82;21579;-60
2020/12/23 14:03:49;;;;;;;38.28;18.98;;;;;;;-1.42;72.51;100149.57;1744680;81;21575;-59
2020/12/23 14:06:20;;;;;;;32.13;16.27;;;;;;;-1.43;72.40;100153.46;1759603;81;21570;-59
2020/12/23 14:08:50;;;;;;;29.40;16.55;;;;;;;-1.42;72.36;100145.73;1747106;81;21133;-60
2020/12/23 14:11:18;;;;;;;31.62;17.05;;;;;;;-1.46;72.35;100146.76;1746078;82;21589;-59
2020/12/23 14:13:47;;;;;;;27.60;15.38;;;;;;;-1.48;72.35;100149.02;1745982;81;21612;-59
2020/12/23 14:16:21;;;;;;;27.77;15.50;;;;;;;-1.51;72.23;100148.70;1746221;81;21561;-60
2020/12/23 14:18:52;;;;;;;28.87;15.85;;;;;;;-1.56;72.09;100148.07;1749137;81;21277;-59
2020/12/23 14:21:21;;;;;;;28.50;15.15;;;;;;;-1.59;72.46;100150.79;1760821;81;21205;-59
2020/12/23 14:23:49;;;;;;;29.77;15.25;;;;;;;-1.59;72.46;100150.79;1760437;81;21134;-59
2020/12/23 14:26:18;;;;;;;26.10;14.45;;;;;;;-1.56;72.50;100151.91;1761273;81;21625;-58
2020/12/23 14:28:46;;;;;;;31.77;14.40;;;;;;;-1.55;72.29;100152.32;1761064;81;21795;-59
2020/12/23 14:31:15;;;;;;;29.42;15.28;;;;;;;-1.55;72.30;100148.90;1761106;81;21590;-58
2020/12/23 14:33:44;;;;;;;27.05;15.53;;;;;;;-1.55;72.53;100142.07;1761240;81;21662;-58
2020/12/23 14:36:21;;;;;;;31.60;17.37;;;;;;;-1.50;72.44;100142.66;1749614;81;21632;-59
2020/12/23 14:38:51;;;;;;;35.90;19.42;;;;;;;-1.49;72.31;100140.93;1729428;83;21167;-58
2020/12/23 14:41:19;;;;;;;34.95;18.48;;;;;;;-1.51;72.37;100144.85;1795939;79;21514;-58
2020/12/23 14:43:49;;;;;;;36.03;17.60;;;;;;;-1.59;72.15;100140.99;1782842;79;21566;-61
2020/12/23 14:46:18;;;;;;;31.02;17.62;;;;;;;-1.62;72.48;100137.65;1787271;79;21292;-58
2020/12/23 14:48:46;;;;;;;30.20;15.75;;;;;;;-1.62;72.48;100137.65;1799210;79;21606;-57
2020/12/23 14:51:24;;;;;;;31.15;17.35;;;;;;;-1.64;72.06;100138.63;1770797;80;21173;-57
